Time;durP1;ratioP1;P1;durP2;ratioP2;P2;SDS_P1;SDS_P2;PMS_P1;PMS_P2;Temp;Humidity;BMP_temperature;BMP_pressure;BME280_temperature;BME280_humidity;BME280_pressure;Samples;Min_cycle;Max_cycle;Signal;HPM_P1;HPM_P2
2021/12/06 00:01:45;;;;;;;47.53;29.10;;;;;;;-0.65;86.81;100039.75;1671830;84;21027;-62
2021/12/06 00:04:22;;;;;;;49.43;30.00;;;;;;;-0.61;86.73;100045.09;1666638;84;21630;-65
2021/12/06 00:06:54;;;;;;;51.30;29.85;;;;;;;-0.60;86.75;100043.33;1669861;85;21041;-65
2021/12/06 00:09:24;;;;;;;49.70;29.03;;;;;;;-0.69;87.25;100044.06;1671108;84;21545;-63
2021/12/06 00:11:57;;;;;;;48.37;32.13;;;;;;;-0.65;87.17;100047.61;1668433;84;21108;-65
2021/12/06 00:14:27;;;;;;;52.73;32.00;;;;;;;-0.60;87.11;100042.84;1651061;85;21019;-64
2021/12/06 00:16:50;;;;;;;52.33;31.17;;;;;;;-0.57;86.99;100037.82;1713209;82;21013;-64
2021/12/06 00:19:17;;;;;;;48.68;31.33;;;;;;;-0.59;87.19;100043.17;1702821;82;21020;-63
2021/12/06 00:21:44;;;;;;;47.03;30.80;;;;;;;-0.51;87.10;100045.20;1719416;82;21453;-65
2021/12/06 00:24:10;;;;;;;58.15;36.73;;;;;;;-0.47;86.92;100041.38;1670248;83;21115;-63
2021/12/06 00:26:36;;;;;;;59.85;33.08;;;;;;;-0.42;86.70;100040.98;1673943;84;21095;-63
2021/12/06 00:29:03;;;;;;;54.70;35.07;;;;;;;-0.44;86.94;100034.56;1660978;84;21029;-62
2021/12/06 00:31:33;;;;;;;;;;;;;;;-0.46;86.95;100029.10;1655985;84;21551;-64
2021/12/06 00:34:03;;;;;;;;;;;;;;;-0.47;87.16;100021.73;1657024;83;20123;-63
2021/12/06 00:36:30;;;;;;;61.53;35.70;;;;;;;-0.50;87.57;100029.83;1638209;87;20532;-64
2021/12/06 00:38:59;;;;;;;61.23;39.60;;;;;;;-0.48;88.01;100029.22;1636144;87;21031;-63
2021/12/06 00:41:26;;;;;;;60.30;37.27;;;;;;;-0.44;88.25;100022.77;1649857;85;21136;-63
2021/12/06 00:43:53;;;;;;;57.90;36.10;;;;;;;-0.44;88.35;100029.81;1655706;85;21037;-62
2021/12/06 00:46:20;;;;;;;56.50;35.47;;;;;;;-0.43;88.42;100027.56;1616728;84;21527;-64
2021/12/06 00:48:46;;;;;;;;;;;;;;;-0.34;88.30;100017.64;1651384;85;21077;-70
2021/12/06 00:51:15;;;;;;;50.87;31.10;;;;;;;-0.24;88.12;100014.61;1669815;84;20191;-63
2021/12/06 00:53:43;;;;;;;45.53;28.57;;;;;;;-0.29;87.95;100016.77;1651838;85;21056;-66
2021/12/06 00:56:09;;;;;;;49.07;33.30;;;;;;;-0.36;88.17;100005.12;1629054;87;21141;-64
2021/12/06 00:58:36;;;;;;;46.63;26.90;;;;;;;-0.32;88.08;100010.48;1664568;84;21089;-65
2021/12/06 01:01:04;;;;;;;45.15;30.48;;;;;;;-0.24;88.06;99999.38;1678357;83;21573;-65
2021/12/06 01:03:34;;;;;;;38.80;28.10;;;;;;;-0.20;87.87;100008.15;1677822;84;21061;-69
2021/12/06 01:06:02;;;;;;;42.07;27.57;;;;;;;-0.17;87.85;100007.54;1624447;87;21044;-63
2021/12/06 01:08:29;;;;;;;37.93;25.37;;;;;;;-0.21;87.99;100001.72;1623713;87;21147;-65
2021/12/06 01:10:57;;;;;;;36.90;25.20;;;;;;;-0.25;88.31;100008.17;1639132;86;21066;-63
2021/12/06 01:13:26;;;;;;;36.00;24.00;;;;;;;-0.23;88.32;99999.70;1652561;84;21133;-65
2021/12/06 01:15:52;;;;;;;38.47;26.60;;;;;;;-0.18;88.37;100005.41;1640719;85;21021;-62
2021/12/06 01:18:20;;;;;;;35.25;24.40;;;;;;;-0.16;88.18;99998.25;1663834;84;22232;-64
2021/12/06 01:20:54;;;;;;;38.37;26.10;;;;;;;-0.12;88.17;100004.06;1649928;84;21043;-63
2021/12/06 01:23:23;;;;;;;38.80;24.20;;;;;;;-0.15;88.09;99996.00;1663721;84;21471;-63
2021/12/06 01:39:11;;;;;;;33.10;21.17;;;;;;;-0.13;88.23;99979.67;1688218;83;21052;-63
2021/12/06 01:41:36;;;;;;;;;;;;;;;-0.05;88.30;99982.95;1675709;83;20989;-63
2021/12/06 01:44:13;;;;;;;32.03;20.90;;;;;;;-0.03;88.06;99981.85;1659266;83;20148;-62
2021/12/06 01:46:53;;;;;;;26.97;17.97;;;;;;;-0.05;88.15;99985.09;1676435;83;21138;-64
2021/12/06 01:49:24;;;;;;;28.27;18.37;;;;;;;-0.01;88.05;99968.63;1683997;83;21048;-63
2021/12/06 01:51:54;;;;;;;26.10;17.97;;;;;;;-0.08;88.35;99968.78;1689333;83;21190;-64
2021/12/06 01:54:22;;;;;;;25.83;19.37;;;;;;;-0.14;88.42;99961.45;1653840;85;20995;-64
2021/12/06 01:56:51;;;;;;;28.83;18.30;;;;;;;-0.16;88.59;99966.81;1650072;85;21046;-63
2021/12/06 01:59:21;;;;;;;30.03;18.70;;;;;;;-0.16;88.64;99968.13;1683759;83;21025;-63
2021/12/06 02:01:50;;;;;;;25.70;17.60;;;;;;;-0.17;88.90;99966.94;1636661;85;21476;-63
2021/12/06 02:04:17;;;;;;;24.90;16.20;;;;;;;-0.13;89.05;99965.72;1641051;85;21088;-63
2021/12/06 02:06:45;;;;;;;26.83;16.77;;;;;;;-0.08;89.12;99971.41;1634361;85;21033;-62
2021/12/06 02:09:16;;;;;;;27.90;18.53;;;;;;;-0.10;89.07;99972.84;1644596;85;21076;-63
2021/12/06 02:11:44;;;;;;;26.17;17.63;;;;;;;-0.16;89.24;99966.81;1627869;85;21633;-64
2021/12/06 02:14:31;;;;;;;26.53;16.63;;;;;;;-0.24;89.62;99967.95;1612997;87;21018;-63
2021/12/06 02:19:33;;;;;;;24.03;16.67;;;;;;;-0.10;89.67;99973.33;1614420;87;21104;-63
2021/12/06 02:22:00;;;;;;;22.53;15.67;;;;;;;-0.04;89.61;99976.73;1672497;84;21034;-64
2021/12/06 02:24:28;;;;;;;26.73;17.27;;;;;;;-0.10;89.40;99968.09;1684752;83;21016;-63
2021/12/06 02:26:55;;;;;;;23.27;15.73;;;;;;;-0.16;89.50;99968.61;1653530;85;21098;-63
2021/12/06 02:29:21;;;;;;;27.37;17.27;;;;;;;-0.14;89.32;99973.23;1648617;85;21107;-62
2021/12/06 02:31:47;;;;;;;24.55;16.32;;;;;;;-0.14;89.37;99965.38;1689692;83;20981;-63
2021/12/06 02:34:14;;;;;;;22.42;14.58;;;;;;;-0.10;89.12;99961.54;1690510;83;21120;-62
2021/12/06 02:36:42;;;;;;;26.10;17.47;;;;;;;-0.10;89.12;99961.54;1688164;83;21059;-62
2021/12/06 02:39:10;;;;;;;26.23;17.73;;;;;;;-0.13;89.21;99967.02;1693111;83;21126;-66
2021/12/06 02:41:38;;;;;;;22.57;14.90;;;;;;;-0.13;89.45;99964.41;1696187;83;20950;-63
2021/12/06 02:44:06;;;;;;;22.37;14.87;;;;;;;-0.05;89.22;99961.98;1699206;83;21023;-63
2021/12/06 02:46:34;;;;;;;22.33;15.80;;;;;;;-0.04;88.62;99957.08;1688564;83;21044;-63
2021/12/06 02:49:02;;;;;;;18.42;13.48;;;;;;;-0.06;88.47;99953.77;1686902;83;21484;-62
2021/12/06 02:51:29;;;;;;;23.07;15.57;;;;;;;-0.03;88.49;99964.00;1682203;83;21626;-62
2021/12/06 02:53:55;;;;;;;21.85;16.37;;;;;;;-0.03;88.55;99957.45;1691575;83;21099;-63
2021/12/06 02:56:51;;;;;;;20.77;14.83;;;;;;;-0.09;88.61;99972.38;1674180;83;20985;-62
2021/12/06 02:59:05;;;;;;;20.87;14.77;;;;;;;-0.11;88.68;99971.20;1669856;84;21960;-62
2021/12/06 03:01:39;;;;;;;19.97;13.80;;;;;;;-0.05;88.55;99961.98;1693046;82;22249;-64
2021/12/06 03:04:07;;;;;;;21.30;15.00;;;;;;;0.01;88.50;99965.39;1701238;83;21021;-64
2021/12/06 03:06:37;;;;;;;24.40;17.07;;;;;;;0.04;88.44;99966.46;1658868;85;21065;-63
2021/12/06 03:09:08;;;;;;;23.87;16.33;;;;;;;0.01;88.47;99960.64;1702817;83;20971;-63
2021/12/06 03:11:52;;;;;;;20.73;13.90;;;;;;;0.01;88.38;99957.53;1693335;82;21008;-65
2021/12/06 03:14:26;;;;;;;23.07;15.60;;;;;;;0.08;88.12;99969.66;1684541;83;21991;-64
2021/12/06 03:16:58;;;;;;;18.97;13.53;;;;;;;0.11;87.72;99973.30;1690465;85;21087;-65
2021/12/06 03:19:25;;;;;;;21.27;14.43;;;;;;;0.09;87.52;99966.88;1671569;83;21007;-62
2021/12/06 03:21:53;;;;;;;17.50;12.10;;;;;;;0.01;87.65;99965.39;1678859;83;21049;-63
2021/12/06 03:24:20;;;;;;;19.47;13.67;;;;;;;-0.05;87.97;99977.23;1680442;84;21550;-66
2021/12/06 03:26:50;;;;;;;20.02;14.18;;;;;;;-0.02;87.87;99967.81;1689868;84;20999;-63
2021/12/06 03:29:17;;;;;;;21.00;14.70;;;;;;;-0.02;87.80;99974.36;1680048;85;21458;-63
2021/12/06 03:31:46;;;;;;;21.27;14.97;;;;;;;0.02;87.86;99968.38;1673751;83;21003;-63
2021/12/06 03:34:14;;;;;;;20.80;14.60;;;;;;;0.05;87.94;99971.21;1673339;83;21027;-64
2021/12/06 03:36:41;;;;;;;22.43;15.30;;;;;;;-0.03;88.00;99975.79;1675603;83;21018;-64
2021/12/06 03:39:13;;;;;;;22.00;14.68;;;;;;;-0.06;88.19;99972.11;1683017;83;21027;-62
2021/12/06 03:41:39;;;;;;;20.57;14.03;;;;;;;0.01;88.14;99969.33;1690796;85;20999;-64
2021/12/06 03:44:06;;;;;;;21.12;15.15;;;;;;;0.04;87.88;99973.02;1687708;83;21018;-63
2021/12/06 03:46:34;;;;;;;22.03;14.63;;;;;;;0.07;87.90;99977.16;1690615;83;21018;-63
2021/12/06 03:49:09;;;;;;;20.40;14.53;;;;;;;0.10;88.01;99984.28;1691140;83;20963;-63
2021/12/06 03:51:36;;;;;;;20.03;14.07;;;;;;;0.09;88.05;99980.47;1683148;83;21494;-63
2021/12/06 03:54:06;;;;;;;19.67;13.97;;;;;;;0.07;88.04;99979.77;1681539;83;21119;-63
2021/12/06 03:56:38;;;;;;;23.00;14.73;;;;;;;0.14;87.81;99986.16;1692587;83;21617;-64
2021/12/06 03:59:05;;;;;;;20.03;13.87;;;;;;;0.08;87.74;99980.95;1693433;83;21041;-64
2021/12/06 04:01:32;;;;;;;20.73;12.80;;;;;;;0.03;87.67;99980.51;1694073;83;21553;-63
2021/12/06 04:04:03;;;;;;;20.17;13.40;;;;;;;0.02;87.83;99976.70;1697577;83;21555;-63
2021/12/06 04:06:32;;;;;;;23.80;14.33;;;;;;;0.01;87.96;99986.36;1689669;83;21018;-63
2021/12/06 04:08:58;;;;;;;20.10;13.93;;;;;;;0.01;87.88;99977.19;1691002;83;21538;-63
2021/12/06 04:11:25;;;;;;;;;;;;;;;0.03;88.03;99973.95;1681074;84;21009;-63
2021/12/06 04:13:52;;;;;;;19.25;12.20;;;;;;;0.03;88.32;99984.92;1693160;83;20422;-63
2021/12/06 04:16:19;;;;;;;19.45;12.95;;;;;;;0.00;88.44;99980.78;1693839;83;21006;-65
2021/12/06 04:18:49;;;;;;;20.53;13.47;;;;;;;0.04;87.99;99973.02;1695479;83;21010;-63
2021/12/06 04:21:18;;;;;;;19.47;13.87;;;;;;;0.08;87.49;99970.48;1692926;83;21041;-63
2021/12/06 04:23:45;;;;;;;19.57;13.13;;;;;;;0.04;87.39;99974.32;1690729;83;21577;-63
2021/12/06 04:26:12;;;;;;;16.03;11.33;;;;;;;0.03;87.57;99967.89;1691459;83;21018;-63
2021/12/06 04:28:43;;;;;;;18.80;13.40;;;;;;;-0.03;87.70;99975.79;1692373;85;21171;-66
2021/12/06 04:31:07;;;;;;;19.50;14.13;;;;;;;-0.08;87.72;99970.92;1689328;83;20971;-64
2021/12/06 04:33:33;;;;;;;21.30;14.18;;;;;;;-0.06;87.91;99962.94;1692972;83;21033;-65
2021/12/06 04:36:01;;;;;;;20.20;14.05;;;;;;;0.05;87.76;99968.10;1708410;83;21078;-65
2021/12/06 04:38:27;;;;;;;18.13;13.17;;;;;;;0.13;87.56;99969.61;1696829;83;21550;-65
2021/12/06 04:40:55;;;;;;;17.27;11.97;;;;;;;0.18;87.38;99963.97;1656237;85;21078;-62
2021/12/06 04:43:22;;;;;;;20.97;12.37;;;;;;;0.12;87.24;99975.80;1694805;83;21089;-64
2021/12/06 04:45:48;;;;;;;22.13;13.62;;;;;;;0.11;87.20;99969.38;1688663;83;21093;-63
2021/12/06 04:48:15;;;;;;;18.67;12.83;;;;;;;0.12;86.93;99964.50;1650725;83;21785;-64
2021/12/06 04:50:42;;;;;;;15.88;10.45;;;;;;;0.07;87.16;99954.39;1691076;83;21082;-64
2021/12/06 04:53:15;;;;;;;23.13;15.70;;;;;;;0.03;87.38;99966.09;1680464;82;22240;-63
2021/12/06 04:55:59;;;;;;;20.60;14.10;;;;;;;-0.01;87.59;99976.49;1696493;83;21988;-64
2021/12/06 04:58:34;;;;;;;19.87;13.90;;;;;;;-0.04;87.61;99974.97;1701180;83;21090;-65
2021/12/06 05:01:08;;;;;;;22.47;12.60;;;;;;;-0.01;87.78;99969.94;1704991;82;21369;-62
2021/12/06 05:03:37;;;;;;;21.10;13.97;;;;;;;-0.06;88.03;99965.56;1712602;83;20988;-64
2021/12/06 05:06:09;;;;;;;22.27;14.67;;;;;;;-0.08;87.99;99979.27;1706663;83;21482;-64
2021/12/06 05:08:41;;;;;;;23.40;15.27;;;;;;;-0.04;87.84;99978.90;1719638;82;21515;-64
2021/12/06 05:11:08;;;;;;;23.07;14.97;;;;;;;0.05;87.80;99981.70;1701123;82;21015;-63
2021/12/06 05:13:37;;;;;;;20.27;14.03;;;;;;;0.13;87.86;99984.48;1683596;85;21097;-67
2021/12/06 05:16:05;;;;;;;23.23;14.57;;;;;;;0.11;87.85;99976.75;1687499;83;21007;-65
2021/12/06 05:18:31;;;;;;;;;;;;;;;0.07;87.85;99986.33;1693403;84;21058;-63
2021/12/06 05:20:58;;;;;;;21.13;13.70;;;;;;;0.01;87.78;99965.88;1670879;83;20125;-64
2021/12/06 05:23:24;;;;;;;20.30;14.40;;;;;;;0.11;87.87;99983.30;1693962;83;21018;-63
2021/12/06 05:25:51;;;;;;;25.08;16.27;;;;;;;0.14;87.69;99988.78;1694025;83;20987;-62
2021/12/06 05:28:22;;;;;;;22.85;15.13;;;;;;;0.16;87.73;99979.82;1690919;83;21010;-63
2021/12/06 05:30:48;;;;;;;24.87;16.53;;;;;;;0.23;87.87;99991.09;1685530;83;21546;-61
2021/12/06 05:33:28;;;;;;;22.53;15.07;;;;;;;0.17;87.86;99987.20;1690706;83;21937;-63
2021/12/06 05:35:43;;;;;;;23.10;16.87;;;;;;;0.14;88.02;99988.30;1676532;83;21027;-63
2021/12/06 05:38:09;;;;;;;;;;;;;;;0.15;88.05;99982.11;1687474;83;21359;-63
2021/12/06 05:40:35;;;;;;;23.53;15.23;;;;;;;0.22;87.89;99989.44;1683722;83;20142;-65
2021/12/06 05:43:03;;;;;;;30.62;19.90;;;;;;;0.26;88.04;99994.77;1687927;85;21062;-65
2021/12/06 05:45:33;;;;;;;29.43;18.60;;;;;;;0.33;88.08;99994.11;1640593;86;21038;-63
2021/12/06 05:47:59;;;;;;;32.20;21.13;;;;;;;0.37;88.15;99992.89;1667032;85;20967;-63
2021/12/06 05:50:26;;;;;;;35.98;22.00;;;;;;;0.39;88.19;99994.89;1682805;83;21756;-62
2021/12/06 05:52:56;;;;;;;39.73;22.93;;;;;;;0.42;88.02;99998.25;1678405;85;20950;-63
2021/12/06 05:55:29;;;;;;;42.97;25.17;;;;;;;0.46;87.62;100000.45;1675644;83;21082;-63
2021/12/06 05:58:00;;;;;;;33.43;22.20;;;;;;;0.51;87.33;100002.22;1689396;83;21499;-65
2021/12/06 06:00:30;;;;;;;34.57;22.60;;;;;;;0.55;87.11;99995.73;1694435;83;21047;-65
2021/12/06 06:02:58;;;;;;;35.00;22.20;;;;;;;0.58;87.13;99994.17;1715643;82;21041;-64
2021/12/06 06:05:24;;;;;;;31.67;20.93;;;;;;;0.53;86.94;99998.16;1704149;82;21025;-63
2021/12/06 06:07:51;;;;;;;32.07;21.43;;;;;;;0.44;86.94;99997.14;1708833;82;21102;-64
2021/12/06 06:10:18;;;;;;;33.90;20.77;;;;;;;0.47;87.02;99996.03;1708400;82;21203;-63
2021/12/06 06:12:44;;;;;;;;;;;;;;;0.46;86.89;100000.45;1677480;82;21145;-62
2021/12/06 06:15:12;;;;;;;29.90;20.10;;;;;;;0.39;87.18;100004.07;1672735;83;20152;-62
2021/12/06 06:17:43;;;;;;;31.47;21.47;;;;;;;0.37;87.36;100007.80;1685772;83;21518;-63
2021/12/06 06:20:21;;;;;;;30.03;20.20;;;;;;;0.35;87.58;100007.09;1645928;85;21157;-64
2021/12/06 06:22:47;;;;;;;33.23;22.03;;;;;;;0.28;87.85;100005.47;1699540;83;21084;-65
2021/12/06 06:25:15;;;;;;;35.63;21.77;;;;;;;0.26;87.99;100007.88;1677493;83;21034;-64
2021/12/06 06:27:42;;;;;;;36.07;21.77;;;;;;;0.30;88.06;100006.19;1693951;83;21078;-64
2021/12/06 06:30:10;;;;;;;35.27;22.33;;;;;;;0.36;88.07;100015.33;1672213;83;21018;-64
2021/12/06 06:32:36;;;;;;;28.33;17.87;;;;;;;0.47;88.02;100017.02;1683531;83;21058;-65
2021/12/06 06:35:04;;;;;;;38.60;25.45;;;;;;;0.53;87.81;100019.14;1628502;86;21108;-64
2021/12/06 06:37:33;;;;;;;43.27;26.10;;;;;;;0.50;87.72;100018.90;1691341;83;21041;-65
2021/12/06 06:39:59;;;;;;;36.83;21.77;;;;;;;0.46;87.80;100016.20;1690331;83;21053;-63
2021/12/06 06:42:27;;;;;;;39.45;23.98;;;;;;;0.47;87.73;100013.94;1687487;83;21096;-62
2021/12/06 06:44:55;;;;;;;35.83;22.00;;;;;;;0.51;87.46;100023.20;1688484;83;20954;-62
2021/12/06 06:47:22;;;;;;;37.23;24.27;;;;;;;0.53;87.47;100012.09;1690071;83;21010;-64
2021/12/06 06:49:49;;;;;;;36.70;22.93;;;;;;;0.57;87.52;100002.17;1702081;84;21113;-63
2021/12/06 06:52:16;;;;;;;;;;;;;;;0.61;87.40;100002.25;1702376;83;21023;-63
2021/12/06 06:54:43;;;;;;;42.53;26.30;;;;;;;0.62;87.38;100005.20;1688836;83;20200;-67
2021/12/06 06:57:10;;;;;;;44.00;27.20;;;;;;;0.50;87.59;100011.03;1687106;83;21541;-64
2021/12/06 06:59:38;;;;;;;44.67;27.63;;;;;;;0.48;87.83;100010.33;1693333;83;21030;-65
2021/12/06 07:02:05;;;;;;;41.63;25.63;;;;;;;0.53;87.77;100021.76;1705836;82;20971;-63
2021/12/06 07:04:33;;;;;;;44.73;25.67;;;;;;;0.54;87.79;100016.36;1702459;82;21075;-65
2021/12/06 07:06:59;;;;;;;41.18;27.37;;;;;;;0.58;87.81;100015.61;1699627;82;21084;-63
2021/12/06 07:09:25;;;;;;;46.60;30.50;;;;;;;0.62;87.94;100013.56;1713409;83;21100;-67
2021/12/06 07:11:52;;;;;;;42.95;29.07;;;;;;;0.30;88.04;99973.88;1714888;82;21148;-65
2021/12/06 07:14:19;;;;;;;46.03;28.67;;;;;;;0.59;88.31;100017.29;1700084;82;21172;-65
2021/12/06 07:16:48;;;;;;;46.37;28.37;;;;;;;0.62;88.24;100015.70;1700113;82;21504;-64
2021/12/06 07:19:16;;;;;;;43.40;25.93;;;;;;;0.69;87.99;100018.63;1715364;82;21017;-63
2021/12/06 07:21:43;;;;;;;44.83;26.20;;;;;;;0.77;87.94;100018.33;1690484;83;21055;-62
2021/12/06 07:24:10;;;;;;;47.60;29.47;;;;;;;0.76;87.74;100025.02;1673624;84;21032;-64
2021/12/06 07:26:37;;;;;;;49.17;30.03;;;;;;;0.73;88.01;100020.02;1692621;83;21060;-66
2021/12/06 07:29:06;;;;;;;47.00;29.33;;;;;;;0.72;88.14;100019.69;1679680;84;21107;-63
2021/12/06 07:31:32;;;;;;;48.63;30.13;;;;;;;0.74;88.16;100025.14;1691141;83;21057;-62
2021/12/06 07:33:58;;;;;;;46.90;27.35;;;;;;;0.74;88.11;100020.39;1688234;83;20972;-64
2021/12/06 07:36:28;;;;;;;43.33;28.10;;;;;;;0.72;88.05;100012.64;1675588;84;21494;-66
2021/12/06 07:38:53;;;;;;;45.07;30.90;;;;;;;0.73;88.29;100010.35;1682601;84;21364;-63
2021/12/06 07:41:23;;;;;;;54.05;30.65;;;;;;;0.78;88.48;100016.53;1695277;83;21325;-64
2021/12/06 07:43:50;;;;;;;50.23;30.23;;;;;;;0.81;88.62;100014.97;1679610;84;21103;-64
2021/12/06 07:46:17;;;;;;;53.93;31.03;;;;;;;0.80;88.79;100019.84;1681759;83;21485;-63
2021/12/06 07:48:43;;;;;;;55.23;32.45;;;;;;;0.76;88.83;100024.53;1649880;85;21048;-65
2021/12/06 07:51:09;;;;;;;46.50;28.23;;;;;;;0.81;88.90;100025.45;1681037;83;21026;-65
2021/12/06 07:53:38;;;;;;;45.63;30.23;;;;;;;0.91;88.82;100026.80;1654407;85;21036;-64
2021/12/06 07:56:06;;;;;;;49.43;29.03;;;;;;;0.97;88.79;100028.39;1663778;84;21088;-65
2021/12/06 07:58:33;;;;;;;50.27;30.57;;;;;;;1.04;88.69;100027.88;1672180;83;21082;-65
2021/12/06 08:00:59;;;;;;;46.98;30.60;;;;;;;1.00;88.53;100027.77;1654134;85;21107;-65
2021/12/06 08:03:26;;;;;;;55.88;34.03;;;;;;;0.88;88.74;100042.30;1675531;84;21077;-66
2021/12/06 08:05:54;;;;;;;51.53;31.43;;;;;;;0.87;89.10;100037.22;1688605;83;20992;-65
2021/12/06 08:08:24;;;;;;;54.67;33.13;;;;;;;0.60;89.05;99978.77;1683942;83;20995;-64
2021/12/06 08:10:55;;;;;;;59.80;33.23;;;;;;;0.99;88.87;100036.63;1681503;83;21086;-65
2021/12/06 08:13:27;;;;;;;61.47;37.33;;;;;;;0.83;88.88;100006.47;1681195;83;21100;-67
2021/12/06 08:15:57;;;;;;;63.13;40.33;;;;;;;0.93;89.17;100051.93;1690610;83;21066;-63
2021/12/06 08:18:23;;;;;;;65.27;38.57;;;;;;;0.93;89.30;100041.44;1677199;84;21529;-67
2021/12/06 08:20:51;;;;;;;;;;;;;;;0.97;89.45;100048.56;1681234;83;21003;-66
2021/12/06 08:23:18;;;;;;;68.57;37.20;;;;;;;1.03;89.54;100051.14;1670897;83;20132;-65
2021/12/06 08:25:47;;;;;;;;;;;;;;;0.99;89.67;100047.13;1677534;83;21318;-64
2021/12/06 08:28:15;;;;;;;80.47;45.80;;;;;;;0.97;89.73;100050.70;1691469;83;20140;-64
2021/12/06 08:30:43;;;;;;;76.80;42.10;;;;;;;0.95;89.98;100048.69;1651063;85;21080;-64
2021/12/06 08:33:10;;;;;;;76.67;41.93;;;;;;;0.93;90.00;100057.18;1688138;83;21054;-65
2021/12/06 08:35:42;;;;;;;59.23;33.50;;;;;;;0.92;90.02;100046.81;1642072;85;21058;-65
2021/12/06 08:38:10;;;;;;;77.80;43.67;;;;;;;0.92;90.21;100047.66;1681131;83;21125;-64
2021/12/06 08:40:40;;;;;;;65.67;36.53;;;;;;;0.95;90.29;100041.30;1652621;85;21090;-67
2021/12/06 08:43:06;;;;;;;66.20;34.80;;;;;;;0.90;90.35;100037.75;1673105;83;20986;-67
2021/12/06 08:45:34;;;;;;;72.87;37.17;;;;;;;0.90;90.41;100036.94;1646542;84;21555;-65
2021/12/06 08:48:00;;;;;;;84.47;42.57;;;;;;;0.92;90.62;100034.55;1628105;86;21067;-65
2021/12/06 08:50:30;;;;;;;78.43;43.33;;;;;;;1.00;90.73;100025.14;1625914;86;21050;-67
2021/12/06 08:52:56;;;;;;;77.87;43.33;;;;;;;1.04;90.79;100023.45;1634741;86;21020;-66
2021/12/06 08:55:25;;;;;;;65.45;35.95;;;;;;;1.08;90.66;100023.52;1650195;84;21152;-69
2021/12/06 08:57:52;;;;;;;68.80;38.00;;;;;;;1.05;90.65;100008.52;1690189;84;21006;-65
2021/12/06 09:00:23;;;;;;;70.55;38.60;;;;;;;1.04;90.58;100005.07;1680881;83;21069;-66
2021/12/06 09:02:50;;;;;;;81.00;42.90;;;;;;;1.08;90.84;100009.58;1679677;83;21513;-65
2021/12/06 09:05:16;;;;;;;85.92;48.65;;;;;;;1.13;90.89;100013.45;1676326;83;21061;-68
2021/12/06 09:07:43;;;;;;;102.37;58.33;;;;;;;1.22;90.96;100000.47;1685313;83;21157;-68
2021/12/06 09:10:12;;;;;;;105.80;59.55;;;;;;;1.30;91.15;99993.58;1679917;83;21136;-68
2021/12/06 09:12:41;;;;;;;118.00;61.37;;;;;;;1.43;91.15;99989.84;1684696;83;21015;-67
2021/12/06 09:15:13;;;;;;;105.00;60.67;;;;;;;1.53;91.02;99983.63;1688118;83;21537;-67
2021/12/06 09:17:42;;;;;;;102.80;57.33;;;;;;;1.61;90.69;99985.55;1677940;83;21052;-67
2021/12/06 09:20:12;;;;;;;97.60;56.70;;;;;;;1.70;90.65;99987.84;1680235;83;21025;-65
2021/12/06 09:22:39;;;;;;;102.00;54.57;;;;;;;1.77;90.51;99982.84;1692166;84;21111;-64
2021/12/06 09:25:09;;;;;;;99.47;57.83;;;;;;;1.80;89.98;99979.45;1674952;83;21016;-66
2021/12/06 09:27:37;;;;;;;89.73;51.57;;;;;;;1.86;89.97;99982.00;1691394;83;21027;-66
2021/12/06 09:30:08;;;;;;;90.47;52.07;;;;;;;1.93;89.95;99976.53;1689181;83;21040;-68
2021/12/06 09:32:34;;;;;;;78.30;43.37;;;;;;;1.98;89.71;99972.16;1685255;83;21001;-67
2021/12/06 09:35:03;;;;;;;80.28;46.73;;;;;;;2.00;89.17;99972.84;1675929;84;21021;-66
2021/12/06 09:37:30;;;;;;;75.53;44.37;;;;;;;1.99;88.92;99968.56;1686686;83;21612;-65
2021/12/06 09:39:57;;;;;;;70.43;42.70;;;;;;;1.99;88.83;99958.05;1683256;84;21218;-65
2021/12/06 09:42:28;;;;;;;71.90;42.93;;;;;;;2.01;88.94;99957.42;1672681;83;21323;-66
2021/12/06 09:44:55;;;;;;;64.97;38.60;;;;;;;2.04;88.75;99956.66;1688471;83;20998;-66
2021/12/06 09:47:21;;;;;;;64.63;40.33;;;;;;;2.05;88.58;99958.79;1690774;83;21014;-67
2021/12/06 09:49:47;;;;;;;70.30;43.10;;;;;;;2.03;88.40;99954.16;1685081;83;21102;-65
2021/12/06 09:52:15;;;;;;;63.10;38.30;;;;;;;1.99;88.25;99945.73;1684421;83;20995;-67
2021/12/06 09:54:41;;;;;;;53.93;32.47;;;;;;;1.98;88.24;99945.86;1681167;83;21046;-66
2021/12/06 09:57:09;;;;;;;53.15;32.83;;;;;;;1.96;87.63;99943.41;1687741;83;20979;-65
2021/12/06 09:59:40;;;;;;;63.73;38.13;;;;;;;1.78;87.16;99948.55;1682886;83;21026;-67
2021/12/06 10:02:15;;;;;;;57.00;33.53;;;;;;;1.70;87.63;99941.37;1681695;83;21009;-66
2021/12/06 10:04:48;;;;;;;62.93;35.23;;;;;;;1.69;88.15;99934.44;1676734;83;21060;-65
2021/12/06 10:07:14;;;;;;;62.73;37.63;;;;;;;1.70;88.40;99933.48;1679845;83;21006;-65
2021/12/06 10:09:43;;;;;;;60.00;36.53;;;;;;;1.67;88.23;99936.38;1685792;83;20979;-68
2021/12/06 10:12:12;;;;;;;70.97;40.43;;;;;;;1.62;88.44;99934.69;1691583;83;21021;-66
2021/12/06 10:14:39;;;;;;;72.03;39.27;;;;;;;1.61;88.90;99931.70;1684906;83;21105;-66
2021/12/06 10:17:06;;;;;;;;;;;;;;;1.66;89.16;99933.43;1686788;83;21025;-67
2021/12/06 10:19:33;;;;;;;67.15;37.80;;;;;;;1.72;89.28;99943.37;1675689;83;20151;-66
2021/12/06 10:22:00;;;;;;;61.50;36.63;;;;;;;1.71;89.34;99936.94;1689065;83;21025;-65
2021/12/06 10:24:30;;;;;;;62.67;38.53;;;;;;;1.74;89.32;99931.41;1685447;83;20989;-64
2021/12/06 10:29:22;;;;;;;55.30;33.00;;;;;;;1.79;89.14;99924.40;1780617;78;22987;-68
2021/12/06 10:31:54;;;;;;;61.13;34.87;;;;;;;1.71;89.17;99932.99;1756039;80;21109;-67
2021/12/06 10:34:27;;;;;;;60.53;35.23;;;;;;;1.72;89.14;99932.86;1728762;80;21028;-65
2021/12/06 10:36:56;;;;;;;58.80;32.63;;;;;;;1.70;89.30;99935.30;1717553;83;21498;-65
2021/12/06 10:39:23;;;;;;;56.67;33.37;;;;;;;1.67;89.00;99927.19;1705161;83;21718;-65
2021/12/06 10:41:53;;;;;;;57.97;32.97;;;;;;;1.65;89.19;99927.81;1706638;83;21038;-67
2021/12/06 10:44:20;;;;;;;54.07;31.93;;;;;;;1.64;89.26;99924.86;1708092;82;21017;-68
2021/12/06 10:46:52;;;;;;;61.33;34.07;;;;;;;1.64;89.38;99918.75;1735612;81;21009;-66
2021/12/06 10:49:23;;;;;;;53.57;32.83;;;;;;;1.68;89.54;99914.41;1716087;81;21033;-66
2021/12/06 10:51:51;;;;;;;52.00;32.43;;;;;;;1.75;89.51;99915.97;1732097;81;21020;-67
2021/12/06 10:54:36;;;;;;;55.20;32.53;;;;;;;1.79;89.42;99909.95;1730676;81;20993;-66
2021/12/06 10:57:03;;;;;;;50.23;31.63;;;;;;;1.81;89.36;99913.27;1705494;81;21338;-67
2021/12/06 10:59:34;;;;;;;57.37;32.23;;;;;;;1.81;89.35;99920.68;1674214;83;21036;-67
2021/12/06 11:02:10;;;;;;;42.83;28.93;;;;;;;1.83;89.36;99913.48;1713770;82;21081;-67
2021/12/06 11:04:40;;;;;;;50.75;30.60;;;;;;;1.82;89.06;99911.81;1695715;83;21021;-65
2021/12/06 11:07:08;;;;;;;52.10;32.73;;;;;;;1.79;89.01;99913.89;1730057;83;21623;-67
2021/12/06 11:09:39;;;;;;;55.53;33.50;;;;;;;1.78;89.18;99913.56;1714115;82;21059;-68
2021/12/06 11:12:08;;;;;;;51.07;32.07;;;;;;;1.77;89.15;99919.28;1693880;82;21050;-67
2021/12/06 11:14:39;;;;;;;61.20;35.43;;;;;;;1.78;89.27;99917.01;1705252;83;21089;-68
2021/12/06 11:17:13;;;;;;;49.43;32.00;;;;;;;1.80;89.28;99916.87;1681383;83;21533;-67
2021/12/06 11:19:40;;;;;;;52.43;33.40;;;;;;;1.84;89.51;99913.80;1711030;83;21172;-66
2021/12/06 11:22:16;;;;;;;53.70;32.03;;;;;;;1.87;89.52;99916.66;1699817;83;21166;-65
2021/12/06 11:24:48;;;;;;;54.60;32.20;;;;;;;1.88;89.57;99915.67;1707865;83;21209;-66
2021/12/06 11:27:20;;;;;;;57.80;33.37;;;;;;;1.85;89.33;99910.22;1711146;83;21880;-69
2021/12/06 11:29:58;;;;;;;46.53;28.97;;;;;;;1.83;89.47;99910.85;1701555;83;21006;-67
2021/12/06 11:32:35;;;;;;;50.13;30.20;;;;;;;1.78;89.00;99904.37;1701546;83;21098;-69
2021/12/06 11:35:10;;;;;;;55.48;32.48;;;;;;;1.69;89.05;99900.28;1699010;82;21580;-68
2021/12/06 11:37:41;;;;;;;44.23;28.93;;;;;;;1.69;89.40;99902.09;1705458;83;21579;-70
2021/12/06 11:40:28;;;;;;;57.90;33.90;;;;;;;1.70;89.43;99891.45;1690661;83;20989;-67
2021/12/06 11:43:00;;;;;;;54.17;33.87;;;;;;;1.74;89.64;99892.81;1701813;83;21012;-68
2021/12/06 11:45:34;;;;;;;51.80;34.07;;;;;;;1.83;89.80;99894.23;1706740;82;20970;-66
2021/12/06 11:48:07;;;;;;;39.63;26.03;;;;;;;1.87;89.83;99891.69;1712110;83;20973;-67
2021/12/06 11:50:47;;;;;;;56.60;31.47;;;;;;;1.86;89.40;99897.90;1712190;83;21835;-67